createdAt,value
2017-11-07T00:00:56.669Z,5.60
2017-11-07T00:03:24.251Z,5.60
2017-11-07T00:05:51.665Z,5.50
2017-11-07T00:08:20.206Z,5.50
2017-11-07T00:10:47.645Z,5.40
2017-11-07T00:13:15.069Z,5.50
2017-11-07T00:15:42.573Z,5.50
2017-11-07T00:18:10.116Z,5.50
2017-11-07T00:20:37.899Z,5.40
2017-11-07T00:23:05.321Z,5.40
2017-11-07T00:25:32.749Z,5.40
2017-11-07T00:28:00.193Z,5.40
2017-11-07T00:30:27.627Z,5.40
2017-11-07T00:32:55.072Z,5.40
2017-11-07T00:35:22.545Z,5.30
2017-11-07T00:37:50.278Z,5.30
2017-11-07T00:40:17.701Z,5.30
2017-11-07T00:42:45.941Z,5.30
2017-11-07T00:45:13.382Z,5.20
2017-11-07T00:47:40.812Z,5.30
2017-11-07T00:50:09.021Z,5.30
2017-11-07T00:52:36.457Z,5.20
2017-11-07T00:55:04.245Z,5.30
2017-11-07T00:57:31.681Z,5.20
2017-11-07T00:59:59.169Z,5.20
2017-11-07T01:02:26.626Z,5.20
2017-11-07T01:04:54.069Z,5.20
2017-11-07T01:07:21.516Z,5.20
2017-11-07T01:09:48.937Z,5.20
2017-11-07T01:12:17.389Z,5.30
2017-11-07T01:14:44.935Z,5.20
2017-11-07T01:17:12.365Z,5.30
2017-11-07T01:19:39.849Z,5.30
2017-11-07T01:22:07.281Z,5.30
2017-11-07T01:24:34.730Z,5.30
2017-11-07T01:27:02.157Z,5.30
2017-11-07T01:29:31.430Z,5.20
2017-11-07T01:31:58.881Z,5.20
2017-11-07T01:34:26.314Z,5.30
2017-11-07T01:36:53.744Z,5.20
2017-11-07T01:39:21.940Z,5.20
2017-11-07T01:41:49.385Z,5.20
2017-11-07T01:44:16.881Z,5.20
2017-11-07T01:46:44.652Z,5.10
2017-11-07T01:49:12.074Z,5.10
2017-11-07T01:51:39.565Z,5.00
2017-11-07T01:54:07.014Z,5.00
2017-11-07T01:56:34.477Z,5.00
2017-11-07T01:59:02.462Z,5.00
2017-11-07T02:01:29.901Z,4.90
2017-11-07T02:03:57.333Z,4.90
2017-11-07T02:06:24.821Z,4.90
2017-11-07T02:08:52.283Z,4.90
2017-11-07T02:11:19.728Z,4.80
2017-11-07T02:13:47.189Z,4.80
2017-11-07T02:16:14.960Z,4.80
2017-11-07T02:18:42.394Z,4.80
2017-11-07T02:21:09.874Z,4.80
2017-11-07T02:23:37.428Z,4.80
2017-11-07T02:26:04.889Z,4.70
2017-11-07T02:28:32.332Z,4.80
2017-11-07T02:30:59.806Z,4.70
2017-11-07T02:33:27.578Z,4.70
2017-11-07T02:35:55.010Z,4.70
2017-11-07T02:38:22.449Z,4.70
2017-11-07T02:40:49.900Z,4.70
2017-11-07T02:43:17.401Z,4.60
2017-11-07T02:45:45.254Z,4.60
2017-11-07T02:48:12.713Z,4.50
2017-11-07T02:50:40.173Z,4.50
2017-11-07T02:53:07.633Z,4.40
2017-11-07T02:55:35.104Z,4.40
2017-11-07T02:58:02.640Z,4.40
2017-11-07T03:00:30.054Z,4.40
2017-11-07T03:02:58.589Z,4.40
2017-11-07T03:05:26.036Z,4.30
2017-11-07T03:07:53.457Z,4.40
2017-11-07T03:10:21.661Z,4.40
2017-11-07T03:12:49.137Z,4.40
2017-11-07T03:15:16.825Z,4.50
2017-11-07T03:17:44.267Z,4.60
2017-11-07T03:20:11.681Z,4.70
2017-11-07T03:22:39.124Z,4.70
2017-11-07T03:25:06.558Z,4.70
2017-11-07T03:27:34.310Z,4.70
2017-11-07T03:30:01.738Z,4.80
2017-11-07T03:32:29.213Z,4.80
2017-11-07T03:34:56.657Z,4.90
2017-11-07T03:37:24.077Z,4.90
2017-11-07T03:39:52.600Z,4.90
2017-11-07T03:42:20.061Z,4.90
2017-11-07T03:44:47.518Z,5.00
2017-11-07T03:47:15.078Z,5.00
2017-11-07T03:49:42.532Z,5.00
2017-11-07T03:52:10.298Z,5.10
2017-11-07T03:54:37.753Z,5.10
2017-11-07T03:57:05.180Z,5.10
2017-11-07T03:59:32.621Z,5.20
2017-11-07T04:02:00.848Z,5.30
2017-11-07T04:04:28.617Z,5.20
2017-11-07T04:06:56.044Z,5.30
2017-11-07T04:09:23.474Z,5.30
2017-11-07T04:11:51.686Z,5.40
2017-11-07T04:14:19.110Z,5.40
2017-11-07T04:16:46.826Z,5.50
2017-11-07T04:19:14.283Z,5.60
2017-11-07T04:21:41.737Z,5.70
2017-11-07T04:24:09.394Z,5.70
2017-11-07T04:26:36.816Z,5.80
2017-11-07T04:29:04.510Z,5.80
2017-11-07T04:31:31.973Z,5.90
2017-11-07T04:33:59.432Z,5.90
2017-11-07T04:36:26.880Z,5.90
2017-11-07T04:38:54.440Z,6.00
2017-11-07T04:41:22.208Z,6.00
2017-11-07T04:43:49.648Z,6.00
2017-11-07T04:46:17.074Z,6.00
2017-11-07T04:48:45.314Z,6.00
2017-11-07T04:51:12.749Z,6.00
2017-11-07T04:53:40.529Z,6.00
2017-11-07T04:56:07.969Z,6.00
2017-11-07T04:58:35.426Z,6.10
2017-11-07T05:01:02.908Z,6.10
2017-11-07T05:03:30.357Z,6.00
2017-11-07T05:05:58.130Z,6.00
2017-11-07T05:08:25.558Z,6.00
2017-11-07T05:10:52.985Z,6.00
2017-11-07T05:13:21.181Z,6.10
2017-11-07T05:15:48.610Z,6.00
2017-11-07T05:18:16.849Z,6.10
2017-11-07T05:20:44.274Z,6.10
2017-11-07T05:23:11.749Z,6.20
2017-11-07T05:25:39.205Z,6.20
2017-11-07T05:28:06.649Z,6.20
2017-11-07T05:30:34.357Z,6.20
2017-11-07T05:33:01.773Z,6.30
2017-11-07T05:35:29.205Z,6.30
2017-11-07T05:37:56.645Z,6.30
2017-11-07T05:40:24.874Z,6.30
2017-11-07T05:42:52.440Z,6.20
2017-11-07T05:45:19.877Z,6.20
2017-11-07T05:47:47.360Z,6.20
2017-11-07T05:50:14.917Z,6.20
2017-11-07T05:52:42.361Z,6.20
2017-11-07T05:55:10.134Z,6.30
2017-11-07T05:57:37.576Z,6.30
2017-11-07T06:00:05.010Z,6.30
2017-11-07T06:02:32.511Z,6.40
2017-11-07T06:04:59.934Z,6.40
2017-11-07T06:07:27.729Z,6.40
2017-11-07T06:09:55.186Z,6.50
2017-11-07T06:12:22.646Z,6.50
2017-11-07T06:14:50.095Z,6.60
2017-11-07T06:17:17.534Z,6.60
2017-11-07T06:19:45.225Z,6.70
2017-11-07T06:22:12.669Z,6.70
2017-11-07T06:24:40.105Z,6.70
2017-11-07T06:27:07.554Z,6.80
2017-11-07T06:29:34.992Z,6.80
2017-11-07T06:32:02.713Z,6.70
2017-11-07T06:34:30.137Z,6.80
2017-11-07T06:36:57.565Z,6.70
2017-11-07T06:39:25.013Z,6.70
2017-11-07T06:41:52.540Z,6.60
2017-11-07T06:44:20.304Z,6.60
2017-11-07T06:46:47.759Z,6.60
2017-11-07T06:49:15.169Z,6.60
2017-11-07T06:51:43.404Z,6.60
2017-11-07T06:54:10.836Z,6.60
2017-11-07T06:56:38.535Z,6.70
2017-11-07T06:59:05.978Z,6.70
2017-11-07T07:01:33.399Z,6.70
2017-11-07T07:04:00.843Z,6.70
2017-11-07T07:06:29.033Z,6.80
2017-11-07T07:08:56.480Z,6.70
2017-11-07T07:11:23.910Z,6.90
2017-11-07T07:13:52.109Z,6.90
2017-11-07T07:16:20.323Z,7.00
2017-11-07T07:18:47.749Z,6.90
2017-11-07T07:21:16.044Z,7.10
2017-11-07T07:23:43.462Z,7.10
2017-11-07T07:26:11.656Z,7.20
2017-11-07T07:28:39.954Z,7.30
2017-11-07T07:31:07.370Z,7.20
2017-11-07T07:33:35.825Z,7.30
2017-11-07T07:36:03.253Z,7.30
2017-11-07T07:38:30.746Z,7.30
2017-11-07T07:40:58.208Z,7.30
2017-11-07T07:43:25.730Z,7.40
2017-11-07T07:45:53.433Z,7.40
2017-11-07T07:48:21.584Z,7.50
2017-11-07T07:50:49.111Z,7.50
2017-11-07T07:53:16.580Z,7.60
2017-11-07T07:55:44.000Z,7.60
2017-11-07T07:58:12.445Z,7.70
2017-11-07T08:00:40.601Z,7.70
2017-11-07T08:03:08.153Z,7.70
2017-11-07T08:05:35.581Z,7.70
2017-11-07T08:08:03.781Z,7.80
2017-11-07T08:10:31.485Z,7.70
2017-11-07T08:12:58.921Z,7.80
2017-11-07T08:15:26.361Z,7.80
2017-11-07T08:17:53.819Z,7.80
2017-11-07T08:20:21.280Z,7.80
2017-11-07T08:22:48.949Z,7.80
2017-11-07T08:25:16.377Z,7.80
2017-11-07T08:27:43.813Z,7.90
2017-11-07T08:30:12.013Z,7.90
2017-11-07T08:32:39.442Z,7.80
2017-11-07T08:35:08.102Z,7.80
2017-11-07T08:37:36.288Z,7.90
2017-11-07T08:40:04.561Z,7.80
2017-11-07T08:42:31.997Z,7.90
2017-11-07T08:44:59.440Z,8.00
2017-11-07T08:47:28.750Z,8.00
2017-11-07T08:49:56.170Z,8.00
2017-11-07T08:52:23.600Z,8.10
2017-11-07T08:54:51.815Z,8.30
2017-11-07T08:57:19.231Z,8.30
2017-11-07T08:59:46.954Z,8.40
2017-11-07T09:02:14.381Z,8.60
2017-11-07T09:04:41.814Z,8.70
2017-11-07T09:07:10.020Z,8.90
2017-11-07T09:09:37.458Z,8.90
2017-11-07T09:12:05.680Z,9.10
2017-11-07T09:14:33.109Z,9.00
2017-11-07T09:17:00.849Z,9.00
2017-11-07T09:19:29.041Z,9.00
2017-11-07T09:21:56.529Z,8.90
2017-11-07T09:24:23.991Z,9.10
2017-11-07T09:26:51.413Z,9.30
2017-11-07T09:29:19.109Z,9.50
2017-11-07T09:31:46.532Z,9.70
2017-11-07T09:34:14.007Z,9.90
2017-11-07T09:36:41.433Z,10.20
2017-11-07T09:39:09.624Z,10.40
2017-11-07T09:41:37.083Z,10.40
2017-11-07T09:44:04.505Z,10.40
2017-11-07T09:46:33.783Z,10.30
2017-11-07T09:49:01.209Z,10.30
2017-11-07T09:51:28.657Z,10.40
2017-11-07T09:53:56.141Z,10.40
2017-11-07T09:56:23.613Z,10.40
2017-11-07T09:58:51.050Z,10.40
2017-11-07T10:01:18.519Z,10.40
2017-11-07T10:03:45.957Z,10.40
2017-11-07T10:06:13.407Z,10.40
2017-11-07T10:08:40.834Z,10.40
2017-11-07T10:11:09.039Z,10.30
2017-11-07T10:13:36.468Z,10.20
2017-11-07T10:16:04.660Z,10.20
2017-11-07T10:18:32.108Z,10.10
2017-11-07T10:21:00.313Z,10.20
2017-11-07T10:23:28.002Z,10.10
2017-11-07T10:25:55.436Z,10.20
2017-11-07T10:28:22.893Z,10.10
2017-11-07T10:30:50.345Z,10.10
2017-11-07T10:33:17.777Z,10.10
2017-11-07T10:35:46.221Z,10.10
2017-11-07T10:38:15.152Z,10.00
2017-11-07T10:40:42.592Z,10.00
2017-11-07T10:43:10.934Z,10.10
2017-11-07T10:45:38.479Z,10.00
2017-11-07T10:48:06.241Z,10.10
2017-11-07T10:50:33.693Z,10.20
2017-11-07T10:53:01.157Z,10.20
2017-11-07T10:55:28.613Z,10.20
2017-11-07T10:57:56.046Z,10.30
2017-11-07T11:00:23.741Z,10.30
2017-11-07T11:02:51.243Z,10.30
2017-11-07T11:05:18.654Z,10.30
2017-11-07T11:07:46.101Z,10.30
2017-11-07T11:10:13.542Z,10.30
2017-11-07T11:12:41.243Z,10.30
2017-11-07T11:15:08.667Z,10.30
2017-11-07T11:17:36.142Z,10.30
2017-11-07T11:20:03.606Z,10.30
2017-11-07T11:22:31.062Z,10.30
2017-11-07T11:24:58.747Z,10.20
2017-11-07T11:27:26.193Z,10.20
2017-11-07T11:29:53.624Z,10.10
2017-11-07T11:32:21.069Z,10.10
2017-11-07T11:34:48.540Z,10.10
2017-11-07T11:37:16.305Z,10.10
2017-11-07T11:39:43.725Z,10.10
2017-11-07T11:42:11.969Z,10.20
2017-11-07T11:44:39.418Z,10.10
2017-11-07T11:47:06.880Z,10.20
2017-11-07T11:49:34.633Z,10.30
2017-11-07T11:52:02.892Z,10.30
2017-11-07T11:54:30.305Z,10.20
2017-11-07T11:56:58.527Z,10.30
2017-11-07T11:59:25.962Z,10.20
2017-11-07T12:01:53.761Z,10.30
2017-11-07T12:04:21.189Z,10.20
2017-11-07T12:06:48.621Z,10.20
2017-11-07T12:09:16.838Z,10.30
2017-11-07T12:11:44.306Z,10.20
2017-11-07T12:14:12.077Z,10.30
2017-11-07T12:16:39.537Z,10.30
2017-11-07T12:19:06.988Z,10.30
2017-11-07T12:21:34.429Z,10.40
2017-11-07T12:24:01.869Z,10.40
2017-11-07T12:26:29.661Z,10.40
2017-11-07T12:28:57.084Z,10.50
2017-11-07T12:31:24.538Z,10.50
2017-11-07T12:33:52.733Z,10.50
2017-11-07T12:36:20.173Z,10.40
2017-11-07T12:38:47.880Z,10.50
2017-11-07T12:41:15.301Z,10.60
2017-11-07T12:43:42.733Z,10.60
2017-11-07T12:46:10.942Z,10.70
2017-11-07T12:48:38.373Z,10.60
2017-11-07T12:51:28.273Z,10.70
2017-11-07T12:53:55.697Z,10.70
2017-11-07T12:56:23.424Z,10.80
2017-11-07T12:58:51.621Z,10.70
2017-11-07T13:01:19.143Z,10.70
2017-11-07T13:03:46.566Z,10.70
2017-11-07T13:06:14.761Z,10.60
2017-11-07T13:08:42.645Z,10.60
2017-11-07T13:11:10.064Z,10.50
2017-11-07T13:13:38.291Z,10.50
2017-11-07T13:16:05.733Z,10.40
2017-11-07T13:18:33.158Z,10.50
2017-11-07T13:21:01.681Z,10.50
2017-11-07T13:23:29.109Z,10.40
2017-11-07T13:25:56.542Z,10.50
2017-11-07T13:28:24.869Z,10.40
2017-11-07T13:30:52.305Z,10.40
2017-11-07T13:33:20.181Z,10.40
2017-11-07T13:35:47.637Z,10.30
2017-11-07T13:38:15.052Z,10.30
2017-11-07T13:40:43.258Z,10.30
2017-11-07T13:43:10.689Z,10.30
2017-11-07T13:45:39.233Z,10.30
2017-11-07T13:48:06.674Z,10.30
2017-11-07T13:50:34.127Z,10.30
2017-11-07T13:53:01.555Z,10.30
2017-11-07T13:55:29.774Z,10.30
2017-11-07T13:57:57.538Z,10.30
2017-11-07T14:00:24.965Z,10.30
2017-11-07T14:02:52.401Z,10.30
2017-11-07T14:05:20.617Z,10.30
2017-11-07T14:07:48.062Z,10.20
2017-11-07T14:10:15.845Z,10.30
2017-11-07T14:12:43.314Z,10.40
2017-11-07T14:15:10.729Z,10.40
2017-11-07T14:17:38.175Z,10.40
2017-11-07T14:20:06.370Z,10.40
2017-11-07T14:22:34.165Z,10.30
2017-11-07T14:25:01.608Z,10.40
2017-11-07T14:27:29.037Z,10.30
2017-11-07T14:29:56.488Z,10.30
2017-11-07T14:32:24.680Z,10.30
2017-11-07T14:34:52.489Z,10.20
2017-11-07T14:37:20.040Z,10.30
2017-11-07T14:39:47.479Z,10.20
2017-11-07T14:42:14.945Z,10.20
2017-11-07T14:44:42.382Z,10.20
2017-11-07T14:47:10.158Z,10.20
2017-11-07T14:49:37.624Z,10.20
2017-11-07T14:52:05.082Z,10.20
2017-11-07T14:54:32.623Z,10.10
2017-11-07T14:57:00.105Z,10.10
2017-11-07T14:59:27.862Z,10.10
2017-11-07T15:01:55.309Z,10.00
2017-11-07T15:04:22.743Z,10.00
2017-11-07T15:06:51.053Z,10.00
2017-11-07T15:09:18.493Z,9.90
2017-11-07T15:11:46.185Z,9.90
2017-11-07T15:14:13.646Z,9.90
2017-11-07T15:16:41.060Z,9.90
2017-11-07T15:19:08.531Z,9.80
2017-11-07T15:21:35.941Z,9.80
2017-11-07T15:24:05.205Z,9.70
2017-11-07T15:26:32.634Z,9.70
2017-11-07T15:29:00.121Z,9.70
2017-11-07T15:31:27.569Z,9.80
2017-11-07T15:33:54.993Z,9.70
2017-11-07T15:36:22.804Z,9.70
2017-11-07T15:38:50.234Z,9.70
2017-11-07T15:41:17.699Z,9.70
2017-11-07T15:43:45.115Z,9.70
2017-11-07T15:46:13.328Z,9.70
2017-11-07T15:48:41.127Z,9.60
2017-11-07T15:51:08.601Z,9.70
2017-11-07T15:53:36.022Z,9.60
2017-11-07T15:56:03.472Z,9.70
2017-11-07T15:58:30.941Z,9.70
2017-11-07T16:00:58.654Z,9.60
2017-11-07T16:03:26.857Z,9.70
2017-11-07T16:05:54.290Z,9.60
2017-11-07T16:08:22.597Z,9.70
2017-11-07T16:10:50.013Z,9.60
2017-11-07T16:13:18.561Z,9.60
2017-11-07T16:15:46.099Z,9.60
2017-11-07T16:18:13.506Z,9.70
2017-11-07T16:20:40.949Z,9.70
2017-11-07T16:23:09.410Z,9.70
2017-11-07T16:25:37.176Z,9.70
2017-11-07T16:28:04.714Z,9.70
2017-11-07T16:30:32.126Z,9.70
2017-11-07T16:33:00.340Z,9.70
2017-11-07T16:35:27.776Z,9.60
2017-11-07T16:37:56.386Z,9.70
2017-11-07T16:40:23.859Z,9.60
2017-11-07T16:42:51.296Z,9.70
2017-11-07T16:45:18.741Z,9.70
2017-11-07T16:47:46.174Z,9.70
2017-11-07T16:50:14.712Z,9.70
2017-11-07T16:52:42.166Z,9.60
2017-11-07T16:55:09.594Z,9.80
2017-11-07T16:57:37.798Z,9.70
2017-11-07T17:00:05.233Z,9.70
2017-11-07T17:02:33.033Z,9.70
2017-11-07T17:05:00.469Z,9.70
2017-11-07T17:07:27.895Z,9.80
2017-11-07T17:09:56.113Z,9.70
2017-11-07T17:12:23.554Z,9.60
2017-11-07T17:14:51.270Z,9.70
2017-11-07T17:17:18.685Z,9.70
2017-11-07T17:19:46.129Z,9.70
2017-11-07T17:22:13.562Z,9.70
2017-11-07T17:24:41.765Z,9.70
2017-11-07T17:27:09.546Z,9.60
2017-11-07T17:29:36.989Z,9.70
2017-11-07T17:32:04.409Z,9.70
2017-11-07T17:34:32.742Z,9.70
2017-11-07T17:37:00.172Z,9.60
2017-11-07T17:39:27.968Z,9.70
2017-11-07T17:41:55.422Z,9.60
2017-11-07T17:44:22.874Z,9.60
2017-11-07T17:46:50.319Z,9.50
2017-11-07T17:49:17.798Z,9.50
2017-11-07T17:51:45.558Z,9.50
2017-11-07T17:54:12.986Z,9.60
2017-11-07T17:56:40.421Z,9.60
2017-11-07T17:59:08.737Z,9.60
2017-11-07T18:01:36.137Z,9.50
2017-11-07T18:04:03.581Z,9.50
2017-11-07T18:06:31.113Z,9.50
2017-11-07T18:08:58.800Z,9.50
2017-11-07T18:11:26.341Z,9.50
2017-11-07T18:13:53.765Z,9.50
2017-11-07T18:16:21.205Z,9.50
2017-11-07T18:18:49.401Z,9.40
2017-11-07T18:21:16.924Z,9.40
2017-11-07T18:23:44.374Z,9.50
2017-11-07T18:26:12.057Z,9.50
2017-11-07T18:28:40.257Z,9.50
2017-11-07T18:31:07.741Z,9.40
2017-11-07T18:33:35.181Z,9.50
2017-11-07T18:36:02.616Z,9.50
2017-11-07T18:38:30.834Z,9.50
2017-11-07T18:40:58.279Z,9.50
2017-11-07T18:43:26.049Z,9.50
2017-11-07T18:45:54.285Z,9.50
2017-11-07T18:48:21.715Z,9.50
2017-11-07T18:50:49.161Z,9.50
2017-11-07T18:53:16.605Z,9.50
2017-11-07T18:55:44.305Z,9.50
2017-11-07T18:58:11.909Z,9.50
2017-11-07T19:00:39.317Z,9.50
2017-11-07T19:03:07.525Z,9.40
2017-11-07T19:05:34.966Z,9.40
2017-11-07T19:08:02.388Z,9.40
2017-11-07T19:10:29.841Z,9.40
2017-11-07T19:12:57.606Z,9.40
2017-11-07T19:15:25.014Z,9.40
2017-11-07T19:17:52.441Z,9.40
2017-11-07T19:20:20.658Z,9.40
2017-11-07T19:22:48.090Z,9.40
2017-11-07T19:25:16.297Z,9.40
2017-11-07T19:27:43.774Z,9.40
2017-11-07T19:30:11.518Z,9.40
2017-11-07T19:32:38.996Z,9.50
2017-11-07T19:35:06.434Z,9.50
2017-11-07T19:37:33.881Z,9.50
2017-11-07T19:40:01.320Z,9.50
2017-11-07T19:42:29.638Z,9.50
2017-11-07T19:44:57.093Z,9.50
2017-11-07T19:47:24.858Z,9.50
2017-11-07T19:49:52.310Z,9.50
2017-11-07T19:52:19.713Z,9.50
2017-11-07T19:54:47.233Z,9.50
2017-11-07T19:57:14.661Z,9.60
2017-11-07T19:59:42.100Z,9.50
2017-11-07T20:02:10.294Z,9.60
2017-11-07T20:04:38.094Z,9.50
2017-11-07T20:07:05.520Z,9.60
2017-11-07T20:09:32.963Z,9.60
2017-11-07T20:12:01.218Z,9.50
2017-11-07T20:14:28.654Z,9.50
2017-11-07T20:16:56.095Z,9.50
2017-11-07T20:19:23.537Z,9.50
2017-11-07T20:21:51.013Z,9.50
2017-11-07T20:24:18.453Z,9.40
2017-11-07T20:26:45.904Z,9.40
2017-11-07T20:29:13.589Z,9.40
2017-11-07T20:31:41.041Z,9.40
2017-11-07T20:34:08.481Z,9.40
2017-11-07T20:36:35.962Z,9.40
2017-11-07T20:39:03.398Z,9.40
2017-11-07T20:41:30.854Z,9.40
2017-11-07T20:43:58.329Z,9.40
2017-11-07T20:46:25.803Z,9.40
2017-11-07T20:48:53.249Z,9.40
2017-11-07T20:51:20.674Z,9.30
2017-11-07T20:53:48.245Z,9.30
2017-11-07T20:56:15.666Z,9.40
2017-11-07T20:58:43.869Z,9.40
2017-11-07T21:01:11.320Z,9.30
2017-11-07T21:03:38.842Z,9.30
2017-11-07T21:06:07.055Z,9.40
2017-11-07T21:08:34.497Z,9.30
2017-11-07T21:11:02.713Z,9.40
2017-11-07T21:13:30.153Z,9.30
2017-11-07T21:15:57.587Z,9.40
2017-11-07T21:18:25.785Z,9.40
2017-11-07T21:20:55.217Z,9.40
2017-11-07T21:23:22.668Z,9.40
2017-11-07T21:25:50.099Z,9.40
2017-11-07T21:28:17.585Z,9.30
2017-11-07T21:30:45.042Z,9.30
2017-11-07T21:33:12.467Z,9.30
2017-11-07T21:35:39.909Z,9.30
2017-11-07T21:38:07.339Z,9.30
2017-11-07T21:40:35.550Z,9.40
2017-11-07T21:43:02.976Z,9.30
2017-11-07T21:45:30.589Z,9.40
2017-11-07T21:47:57.998Z,9.40
2017-11-07T21:50:26.192Z,9.40
2017-11-07T21:52:54.411Z,9.40
2017-11-07T21:55:21.825Z,9.40
2017-11-07T21:57:50.141Z,9.40
2017-11-07T22:00:17.569Z,9.40
2017-11-07T22:02:45.367Z,9.40
2017-11-07T22:05:13.113Z,9.40
2017-11-07T22:07:40.733Z,9.40
2017-11-07T22:10:17.818Z,9.30
2017-11-07T22:12:46.138Z,9.30
2017-11-07T22:15:13.578Z,9.30
2017-11-07T22:17:41.018Z,9.30
2017-11-07T22:20:08.447Z,9.30
2017-11-07T22:22:41.617Z,9.30
2017-11-07T22:25:23.746Z,9.30
2017-11-07T22:27:52.793Z,9.20
2017-11-07T22:30:20.202Z,9.20
2017-11-07T22:32:47.640Z,9.30
2017-11-07T22:35:15.089Z,9.30
2017-11-07T22:37:42.532Z,9.20
2017-11-07T22:40:09.971Z,9.30
2017-11-07T22:42:37.450Z,9.20
2017-11-07T22:45:04.917Z,9.20
2017-11-07T22:47:32.343Z,9.20
2017-11-07T22:50:00.137Z,9.20
2017-11-07T22:52:27.593Z,9.20
2017-11-07T22:54:55.041Z,9.20
2017-11-07T22:57:22.590Z,9.20
2017-11-07T22:59:50.064Z,9.20
2017-11-07T23:02:17.503Z,9.20
2017-11-07T23:04:44.932Z,9.20
2017-11-07T23:07:13.140Z,9.10
2017-11-07T23:09:40.603Z,9.10
2017-11-07T23:12:08.031Z,9.10
2017-11-07T23:14:36.237Z,9.20
2017-11-07T23:17:03.674Z,9.10
2017-11-07T23:19:31.116Z,9.10
2017-11-07T23:22:00.197Z,9.10
2017-11-07T23:24:28.417Z,9.10
2017-11-07T23:26:55.845Z,9.10
2017-11-07T23:29:24.045Z,9.10
2017-11-07T23:31:51.486Z,9.10
2017-11-07T23:34:18.917Z,9.20
2017-11-07T23:36:47.130Z,9.10
2017-11-07T23:39:14.616Z,9.10
2017-11-07T23:41:42.061Z,9.10
2017-11-07T23:44:09.509Z,9.10
2017-11-07T23:46:36.978Z,9.10
2017-11-07T23:49:04.745Z,9.10
2017-11-07T23:51:34.092Z,9.10
2017-11-07T23:54:02.293Z,9.10
2017-11-07T23:56:29.763Z,9.00
2017-11-07T23:58:58.044Z,9.10
